Time;durP1;ratioP1;P1;durP2;ratioP2;P2;SDS_P1;SDS_P2;PMS_P1;PMS_P2;Temp;Humidity;BMP_temperature;BMP_pressure;BME280_temperature;BME280_humidity;BME280_pressure;Samples;Min_cycle;Max_cycle;Signal;HPM_P1;HPM_P2
2022/07/26 00:01:17;;;;;;;10.50;2.95;;;18.80;99.90;;;;;;5033566;28;20036;-75
2022/07/26 00:03:43;;;;;;;15.50;3.08;;;18.70;99.90;;;;;;5030261;28;20037;-76
2022/07/26 00:06:08;;;;;;;12.88;2.97;;;18.80;99.90;;;;;;5038406;28;20345;-75
2022/07/26 00:08:34;;;;;;;11.15;2.60;;;18.80;99.90;;;;;;5035399;28;20111;-75
2022/07/26 00:10:59;;;;;;;16.23;3.00;;;18.80;99.90;;;;;;5031806;28;20487;-76
2022/07/26 00:13:25;;;;;;;12.35;2.72;;;18.80;99.90;;;;;;5038269;28;20071;-76
2022/07/26 00:15:51;;;;;;;11.75;3.15;;;18.80;99.90;;;;;;5034091;28;20088;-76
2022/07/26 00:18:17;;;;;;;13.90;2.83;;;18.80;99.90;;;;;;5036424;28;20047;-76
2022/07/26 00:20:42;;;;;;;14.35;3.30;;;18.80;99.90;;;;;;5057721;28;20036;-75
2022/07/26 00:23:08;;;;;;;16.67;3.03;;;18.80;99.90;;;;;;5039752;28;20102;-76
2022/07/26 00:25:34;;;;;;;15.65;3.20;;;18.80;99.90;;;;;;5034836;28;20041;-77
2022/07/26 00:27:59;;;;;;;12.32;2.90;;;18.80;99.90;;;;;;5035342;28;20387;-76
2022/07/26 00:30:25;;;;;;;13.15;2.92;;;18.80;99.90;;;;;;5022885;28;20044;-76
2022/07/26 00:32:53;;;;;;;13.80;2.72;;;18.80;99.90;;;;;;5033627;28;20045;-76
2022/07/26 00:35:19;;;;;;;11.75;2.83;;;18.70;99.90;;;;;;5055550;28;20091;-76
2022/07/26 00:37:46;;;;;;;13.23;3.10;;;18.60;99.90;;;;;;5037711;28;20044;-76
2022/07/26 00:40:12;;;;;;;12.55;3.08;;;18.60;99.90;;;;;;5037907;28;20109;-77
2022/07/26 00:42:38;;;;;;;13.48;3.15;;;18.60;99.90;;;;;;5041452;28;20045;-75
2022/07/26 00:45:08;;;;;;;11.23;2.60;;;18.60;99.90;;;;;;5029754;28;20037;-75
2022/07/26 00:47:34;;;;;;;13.02;2.67;;;18.60;99.90;;;;;;5033505;28;20658;-75
2022/07/26 00:50:00;;;;;;;10.43;3.28;;;18.60;99.90;;;;;;5020125;28;20132;-76
2022/07/26 00:52:26;;;;;;;10.45;3.30;;;18.50;99.90;;;;;;5032811;28;20128;-76
2022/07/26 00:54:53;;;;;;;14.60;3.00;;;18.60;99.90;;;;;;5035379;28;20040;-76
2022/07/26 00:57:20;;;;;;;10.73;2.67;;;18.60;99.90;;;;;;5036317;28;20155;-76
2022/07/26 00:59:47;;;;;;;13.48;3.30;;;18.60;99.90;;;;;;5024665;28;20036;-76
2022/07/26 01:02:13;;;;;;;11.48;2.83;;;18.70;99.90;;;;;;5038093;28;20032;-76
2022/07/26 01:04:40;;;;;;;10.30;3.00;;;18.70;99.90;;;;;;5039596;28;20041;-76
2022/07/26 01:07:06;;;;;;;11.52;2.90;;;18.70;99.90;;;;;;5039545;28;20626;-76
2022/07/26 01:09:32;;;;;;;11.77;3.08;;;18.70;99.90;;;;;;5040001;28;20398;-76
2022/07/26 01:11:58;;;;;;;9.55;2.92;;;18.60;99.90;;;;;;5024671;28;20041;-75
2022/07/26 01:14:24;;;;;;;9.73;2.97;;;18.60;99.90;;;;;;5036975;28;20081;-76
2022/07/26 01:16:50;;;;;;;9.43;2.53;;;18.60;99.90;;;;;;5039329;28;20959;-76
2022/07/26 01:19:15;;;;;;;12.82;3.00;;;18.60;99.90;;;;;;5020520;28;20526;-76
2022/07/26 01:21:41;;;;;;;10.55;2.97;;;18.60;99.90;;;;;;5037241;28;20565;-76
2022/07/26 01:24:07;;;;;;;11.15;2.70;;;18.60;99.90;;;;;;5038567;28;20043;-77
2022/07/26 01:26:33;;;;;;;8.48;2.67;;;18.60;99.90;;;;;;5041704;28;20036;-75
2022/07/26 01:28:58;;;;;;;10.73;2.60;;;18.60;99.90;;;;;;5044564;28;20041;-76
2022/07/26 01:31:24;;;;;;;9.52;2.45;;;18.60;99.90;;;;;;5057771;28;20069;-77
2022/07/26 01:33:50;;;;;;;10.70;2.83;;;18.60;99.90;;;;;;5040394;28;20045;-76
2022/07/26 01:36:16;;;;;;;9.60;2.60;;;18.60;99.90;;;;;;5039871;28;20029;-76
2022/07/26 01:38:42;;;;;;;6.82;2.60;;;18.50;99.90;;;;;;5039469;28;20394;-76
2022/07/26 01:41:07;;;;;;;9.25;2.70;;;18.50;99.90;;;;;;5034526;28;20037;-76
2022/07/26 01:43:34;;;;;;;8.63;2.40;;;18.50;99.90;;;;;;5025168;28;20517;-76
2022/07/26 01:45:59;;;;;;;6.75;2.05;;;18.50;99.90;;;;;;5040559;28;20040;-76
2022/07/26 01:48:25;;;;;;;9.90;2.67;;;18.50;99.90;;;;;;5037080;28;20041;-76
2022/07/26 01:50:51;;;;;;;6.05;2.20;;;18.50;99.90;;;;;;5037352;28;20045;-75
2022/07/26 01:53:16;;;;;;;10.95;2.70;;;18.50;99.90;;;;;;5035436;28;20037;-75
2022/07/26 01:55:42;;;;;;;5.35;2.20;;;18.50;99.90;;;;;;5039648;28;20037;-76
2022/07/26 01:58:07;;;;;;;8.93;2.30;;;18.50;99.90;;;;;;5038485;28;20412;-76
2022/07/26 02:00:33;;;;;;;8.23;2.30;;;18.50;99.90;;;;;;5037312;28;20550;-76
2022/07/26 02:03:00;;;;;;;6.25;2.03;;;18.50;99.90;;;;;;5041446;28;20143;-76
2022/07/26 02:05:25;;;;;;;9.23;2.40;;;18.50;99.90;;;;;;5055700;28;20039;-75
2022/07/26 02:07:51;;;;;;;6.97;2.10;;;18.50;99.90;;;;;;5058988;28;20515;-76
2022/07/26 02:10:17;;;;;;;9.15;2.40;;;18.50;99.90;;;;;;5061703;28;20098;-76
2022/07/26 02:12:42;;;;;;;7.03;2.38;;;18.40;99.90;;;;;;5042868;28;20094;-76
2022/07/26 02:15:09;;;;;;;7.82;1.90;;;18.40;99.90;;;;;;5037439;28;20124;-75
2022/07/26 02:17:35;;;;;;;6.75;2.00;;;18.40;99.90;;;;;;5053337;28;20451;-75
2022/07/26 02:20:01;;;;;;;5.32;2.20;;;18.40;99.90;;;;;;5031458;28;20071;-76
2022/07/26 02:22:27;;;;;;;4.18;2.10;;;18.40;99.90;;;;;;5035481;28;20441;-76
2022/07/26 02:24:53;;;;;;;5.60;2.00;;;18.40;99.90;;;;;;5037012;28;20098;-75
2022/07/26 02:27:18;;;;;;;5.95;2.28;;;18.40;99.90;;;;;;5053766;28;20506;-76
2022/07/26 02:29:44;;;;;;;9.63;2.97;;;18.40;99.90;;;;;;5057806;28;20076;-77
2022/07/26 02:32:10;;;;;;;8.68;2.72;;;18.40;99.90;;;;;;5038925;28;20113;-78
2022/07/26 02:34:36;;;;;;;4.57;1.70;;;18.30;99.90;;;;;;5040371;28;20044;-81
2022/07/26 02:37:02;;;;;;;4.25;1.67;;;17.90;99.90;;;;;;5043009;28;20074;-80
2022/07/26 02:39:28;;;;;;;4.30;1.92;;;17.50;99.90;;;;;;5042004;28;20418;-78
2022/07/26 02:41:56;;;;;;;5.03;1.98;;;17.20;99.90;;;;;;5039506;28;20388;-78
2022/07/26 02:44:22;;;;;;;7.43;1.95;;;17.10;99.90;;;;;;5042723;28;20308;-77
2022/07/26 02:46:48;;;;;;;6.72;2.42;;;16.90;99.90;;;;;;5061058;28;20656;-77
2022/07/26 02:49:14;;;;;;;6.38;1.67;;;16.90;99.90;;;;;;5035581;28;20160;-76
2022/07/26 02:51:39;;;;;;;5.55;1.63;;;17.00;99.90;;;;;;5039085;28;20510;-78
2022/07/26 02:54:05;;;;;;;6.50;2.00;;;17.00;99.90;;;;;;5035574;28;20128;-77
2022/07/26 02:56:31;;;;;;;4.72;1.63;;;17.00;99.90;;;;;;5040616;28;20044;-77
2022/07/26 02:58:56;;;;;;;4.43;1.77;;;16.80;99.90;;;;;;5038297;28;20130;-77
2022/07/26 03:01:22;;;;;;;7.88;2.40;;;16.80;99.90;;;;;;5039805;28;20063;-78
2022/07/26 03:03:48;;;;;;;5.93;1.83;;;16.80;99.90;;;;;;5036441;28;20033;-77
2022/07/26 03:06:13;;;;;;;5.65;1.98;;;16.80;99.90;;;;;;5039556;28;20043;-78
2022/07/26 03:08:39;;;;;;;5.47;2.15;;;16.80;99.90;;;;;;5039539;28;20626;-76
2022/07/26 03:11:05;;;;;;;6.60;2.30;;;16.90;99.90;;;;;;5042015;28;20041;-78
2022/07/26 03:13:31;;;;;;;7.15;2.13;;;16.80;99.90;;;;;;5034913;28;20122;-77
2022/07/26 03:15:56;;;;;;;6.32;2.33;;;16.90;99.90;;;;;;5040310;28;20072;-78
2022/07/26 03:18:22;;;;;;;6.78;2.33;;;16.90;99.90;;;;;;5022121;28;20034;-78
2022/07/26 03:20:48;;;;;;;8.23;2.35;;;16.90;99.90;;;;;;5034599;28;20050;-77
2022/07/26 03:23:14;;;;;;;7.70;2.22;;;16.90;99.90;;;;;;5031165;28;20121;-77
2022/07/26 03:25:40;;;;;;;9.32;2.35;;;16.90;99.90;;;;;;5038689;28;20368;-77
2022/07/26 03:28:06;;;;;;;9.43;2.42;;;16.90;99.90;;;;;;5039926;28;20044;-77
2022/07/26 03:30:31;;;;;;;9.10;2.20;;;16.90;99.90;;;;;;5032057;28;20041;-76
2022/07/26 03:32:58;;;;;;;8.18;2.30;;;16.90;99.90;;;;;;5036567;28;20044;-78
2022/07/26 03:35:24;;;;;;;7.47;2.00;;;16.90;99.90;;;;;;5031437;28;20040;-78
2022/07/26 03:37:49;;;;;;;7.30;2.28;;;16.90;99.90;;;;;;5024459;28;20419;-77
2022/07/26 03:40:16;;;;;;;8.95;1.85;;;16.90;99.90;;;;;;5030628;28;20068;-78
2022/07/26 03:42:43;;;;;;;7.07;2.50;;;16.90;99.90;;;;;;5030881;28;20069;-77
2022/07/26 03:45:09;;;;;;;8.65;2.63;;;17.00;99.90;;;;;;5060090;28;20073;-76
2022/07/26 03:47:36;;;;;;;8.48;2.15;;;17.00;99.90;;;;;;5040367;28;20379;-78
2022/07/26 03:50:02;;;;;;;6.75;1.80;;;17.00;99.90;;;;;;5036780;28;20040;-77
2022/07/26 03:52:28;;;;;;;8.30;1.75;;;16.90;99.90;;;;;;5054758;28;20431;-76
2022/07/26 03:54:53;;;;;;;11.05;1.95;;;16.90;99.90;;;;;;5037674;28;20037;-77
2022/07/26 03:57:19;;;;;;;7.43;1.83;;;17.00;99.90;;;;;;5038894;28;20128;-76
2022/07/26 03:59:44;;;;;;;8.63;1.98;;;17.00;99.90;;;;;;5038748;28;20032;-77
2022/07/26 04:02:10;;;;;;;7.03;1.67;;;17.00;99.90;;;;;;5038945;28;20508;-75
2022/07/26 04:04:36;;;;;;;6.70;1.60;;;17.00;99.90;;;;;;5031915;28;20037;-77
2022/07/26 04:07:01;;;;;;;6.75;1.42;;;17.10;99.90;;;;;;5038381;28;20099;-77
2022/07/26 04:09:27;;;;;;;10.18;1.67;;;17.10;99.90;;;;;;5039457;28;20140;-77
2022/07/26 04:11:52;;;;;;;6.07;1.35;;;17.10;99.90;;;;;;5033373;28;20095;-77
2022/07/26 04:14:18;;;;;;;5.30;1.33;;;17.10;99.90;;;;;;5021930;28;20038;-77
2022/07/26 04:16:43;;;;;;;7.10;1.20;;;17.10;99.90;;;;;;5038968;28;20055;-77
2022/07/26 04:19:09;;;;;;;7.85;1.42;;;17.20;99.90;;;;;;5039495;28;20033;-77
2022/07/26 04:21:34;;;;;;;8.07;1.60;;;17.20;99.90;;;;;;5023232;28;20146;-78
2022/07/26 04:24:00;;;;;;;5.53;1.17;;;17.10;99.90;;;;;;5039991;28;20120;-77
2022/07/26 04:26:27;;;;;;;6.00;1.23;;;17.10;99.90;;;;;;5022681;28;20384;-77
2022/07/26 04:28:53;;;;;;;5.97;1.10;;;17.10;99.90;;;;;;5033991;28;20495;-77
2022/07/26 04:31:18;;;;;;;5.50;1.20;;;17.10;99.90;;;;;;5035458;28;20037;-77
2022/07/26 04:33:44;;;;;;;4.10;1.00;;;17.00;99.90;;;;;;5036494;28;20058;-78
2022/07/26 04:36:10;;;;;;;7.20;1.10;;;17.00;99.90;;;;;;5036465;28;20293;-75
2022/07/26 04:38:35;;;;;;;9.10;1.30;;;17.00;99.90;;;;;;5063225;28;20494;-76
2022/07/26 04:41:01;;;;;;;8.18;1.65;;;16.90;99.90;;;;;;5039942;28;20091;-77
2022/07/26 04:43:27;;;;;;;4.32;0.90;;;16.90;99.90;;;;;;5036619;28;20116;-77
2022/07/26 04:45:52;;;;;;;6.75;1.10;;;17.00;99.90;;;;;;5035936;28;20037;-77
2022/07/26 04:48:18;;;;;;;4.57;0.90;;;16.90;99.90;;;;;;5040693;28;20075;-75
2022/07/26 04:50:43;;;;;;;8.55;1.02;;;16.90;99.90;;;;;;5041519;28;20116;-77
2022/07/26 04:53:12;;;;;;;3.88;0.80;;;16.80;99.90;;;;;;5041511;28;20059;-76
2022/07/26 04:55:38;;;;;;;4.28;0.73;;;16.80;99.90;;;;;;5040610;28;20553;-77
2022/07/26 04:58:03;;;;;;;6.90;1.23;;;16.80;99.90;;;;;;5040567;28;20045;-76
2022/07/26 05:00:29;;;;;;;7.45;0.90;;;16.80;99.90;;;;;;5041114;28;20466;-77
2022/07/26 05:02:56;;;;;;;6.07;1.05;;;16.80;99.90;;;;;;5032422;28;20610;-76
2022/07/26 05:05:23;;;;;;;6.90;1.00;;;16.70;99.90;;;;;;5048975;28;20120;-78
2022/07/26 05:07:54;;;;;;;6.70;1.10;;;16.70;99.90;;;;;;5032448;28;20072;-77
2022/07/26 05:10:21;;;;;;;4.55;0.95;;;16.80;99.90;;;;;;5031964;28;20041;-77
2022/07/26 05:12:47;;;;;;;5.32;1.23;;;16.80;99.90;;;;;;5033881;28;20037;-75
2022/07/26 05:15:13;;;;;;;6.40;1.25;;;16.90;99.90;;;;;;5021561;28;20045;-76
2022/07/26 05:17:41;;;;;;;6.20;1.10;;;16.80;99.90;;;;;;5039451;28;20048;-76
2022/07/26 05:20:09;;;;;;;5.95;0.80;;;16.90;99.90;;;;;;5061540;28;20033;-76
2022/07/26 05:22:35;;;;;;;5.22;0.90;;;16.90;99.90;;;;;;5039539;28;20210;-77
2022/07/26 05:25:02;;;;;;;4.55;0.80;;;16.80;99.90;;;;;;5023205;28;20079;-78
2022/07/26 05:27:28;;;;;;;7.18;0.98;;;16.80;99.90;;;;;;5024291;28;20063;-78
2022/07/26 05:29:54;;;;;;;5.97;1.23;;;16.60;99.90;;;;;;5046537;28;20040;-77
2022/07/26 05:32:21;;;;;;;5.43;0.82;;;16.40;99.90;;;;;;5044964;28;20049;-77
2022/07/26 05:34:46;;;;;;;2.78;0.70;;;16.30;99.90;;;;;;5037814;28;20037;-78
2022/07/26 05:37:12;;;;;;;7.25;0.77;;;16.20;99.90;;;;;;5035769;28;20040;-76
2022/07/26 05:39:37;;;;;;;5.05;0.98;;;16.10;99.90;;;;;;5043215;28;20456;-77
2022/07/26 05:42:03;;;;;;;3.63;0.63;;;16.10;99.90;;;;;;5039960;28;20035;-77
2022/07/26 05:44:28;;;;;;;5.05;1.20;;;16.10;99.90;;;;;;5038837;28;20162;-76
2022/07/26 05:46:54;;;;;;;3.03;0.70;;;16.20;99.90;;;;;;5039651;28;20048;-77
2022/07/26 05:49:20;;;;;;;5.18;0.95;;;16.30;99.90;;;;;;5057172;28;20183;-76
2022/07/26 05:51:45;;;;;;;4.38;1.00;;;16.40;99.90;;;;;;5038845;28;20083;-77
2022/07/26 05:54:11;;;;;;;8.15;1.00;;;16.30;99.90;;;;;;5035864;28;20045;-76
2022/07/26 05:56:37;;;;;;;4.25;1.00;;;16.40;99.90;;;;;;5040266;28;20036;-76
2022/07/26 05:59:02;;;;;;;3.42;1.00;;;16.40;99.90;;;;;;5040004;28;20059;-76
2022/07/26 06:01:31;;;;;;;4.65;0.82;;;16.50;99.90;;;;;;5034394;28;20381;-77
2022/07/26 06:03:59;;;;;;;4.07;0.70;;;16.60;99.90;;;;;;5032858;28;20042;-76
2022/07/26 06:06:25;;;;;;;4.60;0.80;;;16.70;99.90;;;;;;5029894;28;20540;-78
2022/07/26 06:08:50;;;;;;;3.72;0.80;;;16.70;99.90;;;;;;5033648;28;20056;-76
2022/07/26 06:11:16;;;;;;;3.30;0.70;;;16.70;99.90;;;;;;5033059;28;20435;-78
2022/07/26 06:13:41;;;;;;;2.88;0.68;;;16.70;99.90;;;;;;5032096;28;20123;-77
2022/07/26 06:16:07;;;;;;;4.53;0.65;;;16.70;99.90;;;;;;5031713;28;20075;-77
2022/07/26 06:18:33;;;;;;;5.35;0.80;;;16.70;99.90;;;;;;5065085;28;20087;-77
2022/07/26 06:20:59;;;;;;;3.95;0.90;;;16.80;99.90;;;;;;5031876;28;20651;-77
2022/07/26 06:23:24;;;;;;;6.35;1.48;;;16.80;99.90;;;;;;5032439;28;20117;-77
2022/07/26 06:25:50;;;;;;;6.00;0.88;;;16.90;99.90;;;;;;5065742;28;20037;-77
2022/07/26 06:28:15;;;;;;;4.80;0.90;;;16.90;99.90;;;;;;5065429;28;20187;-77
2022/07/26 06:30:43;;;;;;;7.68;1.00;;;16.90;99.90;;;;;;5031997;28;20071;-77
2022/07/26 06:33:09;;;;;;;3.78;0.80;;;17.00;99.90;;;;;;5032789;28;20530;-77
2022/07/26 06:35:37;;;;;;;4.55;1.00;;;17.00;99.90;;;;;;5066323;28;20124;-77
2022/07/26 06:38:03;;;;;;;5.68;0.88;;;16.90;99.90;;;;;;5038153;28;20048;-78
2022/07/26 06:40:29;;;;;;;7.95;0.95;;;16.60;99.90;;;;;;5037373;28;20080;-78
2022/07/26 06:42:54;;;;;;;9.60;1.10;;;16.60;99.90;;;;;;5017257;28;20041;-78
2022/07/26 06:45:20;;;;;;;6.88;1.00;;;16.50;99.90;;;;;;5020747;28;20574;-78
2022/07/26 06:47:46;;;;;;;5.72;1.00;;;16.50;99.90;;;;;;5032306;28;20080;-76
2022/07/26 06:50:11;;;;;;;10.82;1.95;;;16.60;99.90;;;;;;5038204;28;20035;-76
2022/07/26 06:52:37;;;;;;;4.13;0.85;;;16.60;99.90;;;;;;5038659;28;20041;-77
2022/07/26 06:55:03;;;;;;;6.40;1.20;;;16.90;99.90;;;;;;5028473;28;20090;-77
2022/07/26 06:57:29;;;;;;;7.07;1.17;;;17.00;99.90;;;;;;5019699;28;20051;-78
2022/07/26 06:59:55;;;;;;;5.38;0.85;;;17.10;99.90;;;;;;5030638;28;20116;-77
2022/07/26 07:02:20;;;;;;;9.10;1.00;;;17.10;99.90;;;;;;5031146;28;20044;-76
2022/07/26 07:04:46;;;;;;;3.45;0.60;;;17.10;99.90;;;;;;5014669;28;20045;-77
2022/07/26 07:07:11;;;;;;;5.63;0.90;;;17.10;99.90;;;;;;5031167;28;20102;-77
2022/07/26 07:09:37;;;;;;;5.05;0.70;;;17.10;99.90;;;;;;5031188;28;20122;-77
2022/07/26 07:12:04;;;;;;;5.95;0.88;;;17.00;99.90;;;;;;5029921;28;20068;-76
2022/07/26 07:14:30;;;;;;;4.03;0.60;;;17.00;99.90;;;;;;5062904;28;20084;-76
2022/07/26 07:16:56;;;;;;;5.72;0.68;;;17.10;99.90;;;;;;5030705;28;20131;-77
2022/07/26 07:19:22;;;;;;;3.83;1.00;;;17.20;99.90;;;;;;5061162;28;20044;-77
2022/07/26 07:21:48;;;;;;;4.85;0.70;;;17.30;99.90;;;;;;5030749;28;20042;-78
2022/07/26 07:24:13;;;;;;;4.68;0.88;;;17.50;99.90;;;;;;5014339;28;20052;-77
2022/07/26 07:26:40;;;;;;;6.07;0.80;;;17.50;99.90;;;;;;5030561;28;20053;-76
2022/07/26 07:29:06;;;;;;;3.13;1.00;;;17.40;99.90;;;;;;5030521;28;20041;-77
2022/07/26 07:31:32;;;;;;;3.40;0.82;;;17.50;99.90;;;;;;5030383;28;20064;-76
2022/07/26 07:33:57;;;;;;;7.97;0.90;;;17.50;99.90;;;;;;5012383;28;20037;-76
2022/07/26 07:36:23;;;;;;;5.30;0.90;;;17.40;99.90;;;;;;5027799;28;20609;-76
2022/07/26 07:38:49;;;;;;;6.85;1.20;;;17.60;99.90;;;;;;5030488;28;20065;-76
2022/07/26 07:41:15;;;;;;;8.10;0.90;;;17.60;99.90;;;;;;5030290;28;20120;-77
2022/07/26 07:43:40;;;;;;;4.75;1.08;;;17.60;99.90;;;;;;5063638;28;20041;-76
2022/07/26 07:46:06;;;;;;;7.10;0.82;;;17.70;99.90;;;;;;5013049;28;20068;-77
2022/07/26 07:48:31;;;;;;;8.07;1.13;;;18.00;99.90;;;;;;5018902;28;20041;-77
2022/07/26 07:50:57;;;;;;;5.22;0.80;;;18.20;99.90;;;;;;5027335;28;20029;-77
2022/07/26 07:53:23;;;;;;;10.57;1.60;;;18.40;99.90;;;;;;5036760;28;20462;-78
2022/07/26 07:55:48;;;;;;;6.25;1.35;;;18.40;99.90;;;;;;5006995;28;20148;-77
2022/07/26 07:58:15;;;;;;;9.93;1.02;;;18.10;99.90;;;;;;5062546;28;20407;-77
2022/07/26 08:00:40;;;;;;;5.75;1.13;;;18.00;99.90;;;;;;5029734;28;20121;-76
2022/07/26 08:03:06;;;;;;;5.97;1.10;;;17.90;99.90;;;;;;5025071;28;20483;-76
2022/07/26 08:05:32;;;;;;;12.27;1.35;;;17.80;99.90;;;;;;5007874;28;20258;-77
2022/07/26 08:07:57;;;;;;;8.30;1.23;;;17.70;99.90;;;;;;5008677;28;20076;-76
2022/07/26 08:10:23;;;;;;;8.77;1.40;;;17.60;99.90;;;;;;5009708;28;20092;-77
2022/07/26 08:12:49;;;;;;;7.35;1.27;;;17.70;99.90;;;;;;5012739;28;20033;-76
2022/07/26 08:15:14;;;;;;;6.13;1.30;;;17.80;99.90;;;;;;5013359;28;20128;-76
2022/07/26 08:17:40;;;;;;;8.40;1.10;;;18.00;99.90;;;;;;5017329;28;20129;-77
2022/07/26 08:20:06;;;;;;;5.05;0.95;;;18.20;99.90;;;;;;5012527;28;20104;-76
2022/07/26 08:22:31;;;;;;;5.78;0.98;;;18.20;99.90;;;;;;5012213;28;20034;-76
2022/07/26 08:24:58;;;;;;;6.63;1.08;;;18.30;99.90;;;;;;5011580;28;20061;-77
2022/07/26 08:27:23;;;;;;;6.13;1.00;;;18.50;99.90;;;;;;5012182;28;20118;-77
2022/07/26 08:29:49;;;;;;;5.45;1.02;;;18.70;99.90;;;;;;5012983;28;20045;-78
2022/07/26 08:32:14;;;;;;;3.65;0.98;;;18.70;99.90;;;;;;5012109;28;20042;-77
2022/07/26 08:34:40;;;;;;;7.65;1.30;;;18.80;99.90;;;;;;5011853;28;20046;-77
2022/07/26 08:37:06;;;;;;;5.90;1.10;;;18.80;99.90;;;;;;5016581;28;20038;-76
2022/07/26 08:39:32;;;;;;;7.35;1.20;;;18.80;99.90;;;;;;5032422;28;20144;-76
2022/07/26 08:41:57;;;;;;;8.88;1.30;;;18.80;99.90;;;;;;5012861;28;20563;-77
2022/07/26 08:44:23;;;;;;;6.00;0.90;;;18.80;99.90;;;;;;5011957;28;20100;-77
2022/07/26 08:46:48;;;;;;;8.88;1.48;;;18.80;99.90;;;;;;5028240;28;20507;-76
2022/07/26 08:49:14;;;;;;;8.80;1.40;;;18.90;99.90;;;;;;5033840;28;20048;-78
2022/07/26 08:51:42;;;;;;;8.45;1.27;;;18.80;99.90;;;;;;5033306;28;20083;-77
2022/07/26 08:54:10;;;;;;;9.73;1.92;;;18.80;99.90;;;;;;5032171;28;20049;-77
2022/07/26 08:56:47;;;;;;;7.03;1.75;;;18.90;99.90;;;;;;5032861;28;20045;-77
2022/07/26 08:59:15;;;;;;;8.93;1.50;;;19.10;99.90;;;;;;5049663;28;20041;-77
2022/07/26 09:02:03;;;;;;;6.18;1.55;;;19.20;99.90;;;;;;5034201;28;20037;-79
2022/07/26 09:04:29;;;;;;;10.77;1.58;;;18.90;99.90;;;;;;5032486;28;20081;-77
2022/07/26 09:07:14;;;;;;;8.00;1.73;;;18.90;99.90;;;;;;5033345;28;20073;-77
2022/07/26 09:09:58;;;;;;;11.68;1.70;;;18.60;99.90;;;;;;5034556;28;20045;-78
2022/07/26 09:12:24;;;;;;;9.23;1.90;;;18.40;99.90;;;;;;5033554;28;20114;-77
2022/07/26 09:14:50;;;;;;;11.80;2.95;;;18.40;99.90;;;;;;5033521;28;20081;-77
2022/07/26 09:17:18;;;;;;;11.32;2.10;;;18.20;99.90;;;;;;5033004;28;20127;-78
2022/07/26 09:19:44;;;;;;;8.40;1.90;;;18.20;99.90;;;;;;5032665;28;20037;-78
2022/07/26 09:22:15;;;;;;;11.88;2.00;;;18.30;99.90;;;;;;5014686;28;20060;-76
2022/07/26 09:24:45;;;;;;;8.65;1.80;;;18.30;99.90;;;;;;5064779;28;20046;-77
2022/07/26 09:27:14;;;;;;;10.23;1.90;;;18.40;99.90;;;;;;5032799;28;20124;-76
2022/07/26 09:29:45;;;;;;;10.15;2.17;;;18.30;99.90;;;;;;5034195;28;20045;-79
2022/07/26 09:32:15;;;;;;;10.95;1.92;;;18.20;99.90;;;;;;5014256;28;20046;-77
2022/07/26 09:34:42;;;;;;;9.85;2.17;;;18.40;99.90;;;;;;5029067;28;20091;-77
2022/07/26 09:37:08;;;;;;;10.48;2.35;;;18.40;99.90;;;;;;5025789;28;20069;-77
2022/07/26 09:39:59;;;;;;;11.98;2.38;;;18.50;99.90;;;;;;5026194;28;20491;-77
2022/07/26 09:42:26;;;;;;;14.30;2.55;;;18.70;99.90;;;;;;5025760;28;20518;-77
2022/07/26 09:44:52;;;;;;;12.48;2.67;;;18.80;99.90;;;;;;5023054;28;20127;-77
2022/07/26 09:47:17;;;;;;;14.40;3.30;;;18.60;99.90;;;;;;5002934;28;20046;-77
2022/07/26 09:49:43;;;;;;;15.57;3.00;;;18.60;99.90;;;;;;5013955;28;20037;-77
2022/07/26 09:52:17;;;;;;;10.05;2.15;;;18.40;99.90;;;;;;5004683;28;20049;-77
2022/07/26 09:54:48;;;;;;;8.98;2.08;;;18.40;99.90;;;;;;5022341;28;20065;-77
2022/07/26 09:57:18;;;;;;;11.38;2.35;;;18.50;99.90;;;;;;5035977;28;20037;-77
2022/07/26 09:59:44;;;;;;;9.07;1.80;;;18.70;99.90;;;;;;5034754;28;20038;-77
2022/07/26 10:02:12;;;;;;;13.35;1.90;;;18.90;99.90;;;;;;5029227;28;20061;-77
2022/07/26 10:04:38;;;;;;;13.30;1.95;;;19.30;99.90;;;;;;5032380;28;20095;-77
2022/07/26 10:07:03;;;;;;;9.98;1.67;;;19.50;99.90;;;;;;5065908;28;20073;-77
2022/07/26 10:09:34;;;;;;;11.68;1.65;;;19.50;99.90;;;;;;5032076;28;20427;-77
2022/07/26 10:12:05;;;;;;;7.43;1.70;;;19.50;99.90;;;;;;5033774;28;20053;-77
2022/07/26 10:14:45;;;;;;;8.85;1.65;;;19.40;99.90;;;;;;5032064;28;20041;-77
2022/07/26 10:17:25;;;;;;;10.65;1.90;;;19.40;99.90;;;;;;5049855;28;20833;-77
2022/07/26 10:19:54;;;;;;;8.02;1.75;;;19.30;99.90;;;;;;5029243;28;20511;-77
2022/07/26 10:22:29;;;;;;;8.95;1.70;;;19.10;99.90;;;;;;5012318;28;20515;-78
2022/07/26 10:24:55;;;;;;;11.65;2.70;;;19.20;99.90;;;;;;5013391;28;20132;-78
2022/07/26 10:27:41;;;;;;;8.98;1.75;;;19.20;99.90;;;;;;5062261;28;20060;-77
2022/07/26 10:30:19;;;;;;;10.75;1.70;;;19.30;99.90;;;;;;5060056;28;20056;-78
2022/07/26 10:33:00;;;;;;;10.80;2.05;;;19.40;99.90;;;;;;5035006;28;20037;-76
2022/07/26 10:35:46;;;;;;;4.85;1.35;;;19.50;99.90;;;;;;5036644;28;20120;-77
2022/07/26 10:38:24;;;;;;;12.60;1.98;;;19.70;99.90;;;;;;5038897;28;20500;-79
2022/07/26 10:41:07;;;;;;;7.85;1.48;;;19.40;99.90;;;;;;5048341;28;20420;-77
2022/07/26 10:43:33;;;;;;;11.32;1.63;;;19.50;99.90;;;;;;5030019;28;20029;-77
2022/07/26 10:46:28;;;;;;;7.80;1.50;;;19.60;99.90;;;;;;5032889;28;20041;-78
2022/07/26 10:48:58;;;;;;;9.50;1.85;;;19.90;99.90;;;;;;5057502;28;20400;-78
2022/07/26 10:51:32;;;;;;;8.52;1.60;;;19.90;99.90;;;;;;5042432;28;20084;-77
2022/07/26 10:54:09;;;;;;;7.75;1.65;;;19.80;99.90;;;;;;5035044;28;20041;-77
2022/07/26 10:56:35;;;;;;;8.55;1.60;;;19.80;99.90;;;;;;5061425;28;20025;-79
2022/07/26 10:59:01;;;;;;;7.38;1.55;;;19.70;99.90;;;;;;5023708;28;20124;-78
2022/07/26 11:01:39;;;;;;;11.57;1.42;;;19.70;99.20;;;;;;5033388;28;20037;-79
2022/07/26 11:04:16;;;;;;;10.95;1.50;;;19.90;99.90;;;;;;5031840;28;20045;-77
2022/07/26 11:06:44;;;;;;;6.32;1.50;;;20.10;99.90;;;;;;5031411;28;20069;-77
2022/07/26 11:09:11;;;;;;;6.13;1.20;;;20.20;99.10;;;;;;5038535;28;20076;-78
2022/07/26 11:11:37;;;;;;;10.40;1.73;;;20.10;99.00;;;;;;5037059;28;20041;-78
2022/07/26 11:14:12;;;;;;;5.93;1.08;;;20.00;98.90;;;;;;5018970;28;20046;-77
2022/07/26 11:16:46;;;;;;;7.25;1.15;;;20.00;98.70;;;;;;5036091;28;20071;-78
2022/07/26 11:19:16;;;;;;;8.60;1.45;;;20.10;98.90;;;;;;5041134;28;20044;-79
2022/07/26 11:21:52;;;;;;;4.75;1.00;;;20.20;98.60;;;;;;5039966;28;20040;-77
2022/07/26 11:24:18;;;;;;;7.97;1.30;;;20.30;98.40;;;;;;5035162;28;20041;-82
2022/07/26 11:26:45;;;;;;;7.03;1.15;;;20.30;98.10;;;;;;5025746;28;20037;-77
2022/07/26 11:29:11;;;;;;;5.75;1.00;;;20.00;97.50;;;;;;5029074;28;20099;-78
2022/07/26 11:31:38;;;;;;;5.45;1.05;;;19.80;97.10;;;;;;5022817;28;20050;-77
2022/07/26 11:34:04;;;;;;;4.93;1.00;;;20.00;97.90;;;;;;5034697;28;20041;-77
2022/07/26 11:36:36;;;;;;;4.65;0.90;;;20.00;98.20;;;;;;5036788;28;20045;-78
2022/07/26 11:39:03;;;;;;;21.02;2.45;;;20.20;98.50;;;;;;5031635;28;20044;-79
2022/07/26 11:41:30;;;;;;;9.63;1.35;;;20.10;98.00;;;;;;5029097;28;20495;-77
2022/07/26 11:43:56;;;;;;;4.68;1.05;;;20.10;97.90;;;;;;5018750;28;20052;-77
2022/07/26 11:46:30;;;;;;;5.13;1.20;;;20.30;97.90;;;;;;5015969;28;20054;-76
2022/07/26 11:48:55;;;;;;;4.97;0.98;;;20.20;97.50;;;;;;5054822;28;20118;-78
2022/07/26 11:51:23;;;;;;;24.20;2.63;;;20.40;97.60;;;;;;5017904;28;20041;-77
2022/07/26 11:53:50;;;;;;;4.80;1.08;;;20.30;97.40;;;;;;5030054;28;20045;-77
2022/07/26 11:56:21;;;;;;;6.90;1.13;;;20.40;97.70;;;;;;5030581;28;20096;-77
2022/07/26 11:58:49;;;;;;;7.00;1.10;;;20.60;97.30;;;;;;5062465;28;20042;-77
2022/07/26 12:01:17;;;;;;;7.03;1.20;;;20.80;97.90;;;;;;5034473;28;20034;-77
2022/07/26 12:03:44;;;;;;;7.88;1.50;;;20.80;97.50;;;;;;5045438;28;20025;-77
2022/07/26 12:06:13;;;;;;;6.28;1.23;;;20.60;96.40;;;;;;5040505;28;20701;-79
2022/07/26 12:08:55;;;;;;;4.55;1.20;;;20.70;96.80;;;;;;5041589;28;20033;-77
2022/07/26 12:11:23;;;;;;;6.47;1.50;;;20.70;96.80;;;;;;5032339;28;20113;-76
2022/07/26 12:13:51;;;;;;;5.05;1.10;;;20.60;96.40;;;;;;5030269;28;20030;-77
2022/07/26 12:16:52;;;;;;;6.05;1.10;;;20.50;96.60;;;;;;5037279;28;20036;-76
2022/07/26 12:19:26;;;;;;;3.53;0.98;;;21.00;96.80;;;;;;4999490;28;20038;-78
2022/07/26 12:22:19;;;;;;;9.77;1.35;;;20.80;95.60;;;;;;5015943;28;20043;-77
2022/07/26 12:24:52;;;;;;;3.85;1.00;;;20.90;96.20;;;;;;5033882;28;20049;-77
2022/07/26 12:27:45;;;;;;;6.78;1.13;;;20.80;95.90;;;;;;5024315;28;20052;-77
2022/07/26 12:30:10;;;;;;;7.78;1.20;;;21.10;96.20;;;;;;5037429;28;20581;-76
2022/07/26 12:32:40;;;;;;;4.40;1.02;;;20.80;95.60;;;;;;5018757;28;20063;-76
2022/07/26 12:35:10;;;;;;;6.18;1.10;;;20.70;95.50;;;;;;5034800;28;20067;-76
2022/07/26 12:37:44;;;;;;;9.38;1.33;;;20.80;96.00;;;;;;5049115;28;20033;-76
2022/07/26 12:40:22;;;;;;;7.57;1.48;;;20.90;96.10;;;;;;5050201;28;20037;-78
2022/07/26 12:42:51;;;;;;;4.93;1.30;;;20.80;95.70;;;;;;5035010;28;20030;-77
2022/07/26 12:45:21;;;;;;;6.00;1.10;;;20.80;96.40;;;;;;5014608;28;20159;-76
2022/07/26 12:47:48;;;;;;;2.80;0.80;;;20.80;96.50;;;;;;5030642;28;20121;-80